Time;durP1;ratioP1;P1;durP2;ratioP2;P2;SDS_P1;SDS_P2;PMS_P1;PMS_P2;Temp;Humidity;BMP_temperature;BMP_pressure;BME280_temperature;BME280_humidity;BME280_pressure;Samples;Min_cycle;Max_cycle;Signal;HPM_P1;HPM_P2
2023/03/17 00:09:52;;;;;;;138.40;89.20;;;;;;;-5.16;77.67;100315.42;434884;1258;140050;-68
2023/03/17 00:19:58;;;;;;;134.50;93.20;;;;;;;-5.19;78.20;100314.86;434879;1257;139978;-69
2023/03/17 00:30:05;;;;;;;126.20;90.10;;;;;;;-5.25;78.81;100296.02;434496;1258;139945;-70
2023/03/17 00:40:17;;;;;;;145.40;92.00;;;;;;;-5.28;79.07;100281.99;437529;1260;139519;-69
2023/03/17 00:50:25;;;;;;;143.20;95.20;;;;;;;-5.33;78.99;100278.00;435973;1258;139975;-67
2023/03/17 01:00:31;;;;;;;122.60;87.30;;;;;;;-5.38;79.28;100264.81;435156;1260;139996;-69
2023/03/17 01:10:37;;;;;;;123.70;83.90;;;;;;;-5.35;80.35;100250.34;433980;1260;1275531;-69
2023/03/17 01:20:44;;;;;;;116.40;78.00;;;;;;;-5.24;80.44;100245.16;434912;1260;153928;-66
2023/03/17 01:30:51;;;;;;;115.10;79.70;;;;;;;-5.37;79.75;100238.18;435436;1257;140041;-68
2023/03/17 01:40:56;;;;;;;94.70;67.40;;;;;;;-5.47;79.86;100229.20;434910;1260;140244;-68
2023/03/17 01:51:05;;;;;;;89.00;60.70;;;;;;;-5.44;80.34;100225.30;434797;1257;140741;-68
2023/03/17 02:01:11;;;;;;;84.80;56.30;;;;;;;-5.43;80.68;100223.45;435134;1257;139206;-70
2023/03/17 02:11:17;;;;;;;76.40;51.90;;;;;;;-5.32;81.06;100224.09;434990;1257;139612;-69
2023/03/17 02:21:44;;;;;;;57.20;40.30;;;;;;;-5.26;81.46;100219.02;435363;1259;140438;-69
2023/03/17 02:31:50;;;;;;;55.30;37.10;;;;;;;-5.03;82.26;100208.66;435153;1257;140436;-69
2023/03/17 02:41:56;;;;;;;79.10;54.30;;;;;;;-4.97;81.78;100220.86;435747;1258;140522;-69
2023/03/17 02:52:02;;;;;;;39.30;28.30;;;;;;;-5.03;81.54;100218.75;434907;1257;139601;-70
2023/03/17 03:02:08;;;;;;;36.40;26.30;;;;;;;-4.93;82.44;100214.92;435147;1260;139185;-68
2023/03/17 03:12:15;;;;;;;43.10;29.30;;;;;;;-4.58;83.09;100218.13;434850;1260;139556;-69
2023/03/17 03:22:20;;;;;;;32.50;23.90;;;;;;;-4.49;82.29;100229.31;434918;1260;140062;-68
2023/03/17 03:32:25;;;;;;;;;;;;;;;-4.31;82.69;100218.15;434937;1254;140040;-69
2023/03/17 03:42:31;;;;;;;28.50;20.90;;;;;;;-3.96;82.53;100211.02;434616;1259;125769;-70
2023/03/17 03:52:37;;;;;;;31.90;21.30;;;;;;;-3.76;82.06;100214.37;435070;1259;140485;-68
2023/03/17 04:02:43;;;;;;;31.30;22.10;;;;;;;-3.63;81.49;100229.83;436909;1254;142179;-68
2023/03/17 04:12:49;;;;;;;33.60;22.50;;;;;;;-3.50;81.67;100221.48;435383;1254;139430;-67
2023/03/17 04:22:55;;;;;;;39.10;26.10;;;;;;;-3.37;81.55;100217.08;435627;1254;139802;-69
2023/03/17 04:33:00;;;;;;;;;;;;;;;-3.40;81.14;100218.45;435561;1254;140398;-68
2023/03/17 04:43:06;;;;;;;43.00;27.70;;;;;;;-3.41;81.38;100224.44;435193;1259;126667;-69
2023/03/17 04:53:10;;;;;;;;;;;;;;;-3.41;81.39;100225.29;434909;1254;139825;-70
2023/03/17 05:03:16;;;;;;;41.60;28.60;;;;;;;-3.36;81.62;100219.14;437959;1254;126352;-69
2023/03/17 05:13:32;;;;;;;42.40;26.20;;;;;;;-3.19;81.50;100220.23;435768;1254;140268;-66
2023/03/17 05:23:39;;;;;;;36.30;23.30;;;;;;;-2.85;81.05;100235.54;435269;1259;140599;-67
2023/03/17 05:33:45;;;;;;;29.40;21.50;;;;;;;-2.37;80.19;100253.91;434994;1256;140193;-68
2023/03/17 05:43:51;;;;;;;22.00;16.10;;;;;;;-1.82;78.98;100256.58;435089;1254;139373;-69
2023/03/17 05:53:57;;;;;;;21.90;14.70;;;;;;;0.04;77.40;100251.66;434930;1254;140254;-68
2023/03/17 06:04:03;;;;;;;24.80;14.10;;;;;;;4.45;71.65;100232.98;438168;1255;140647;-69
2023/03/17 06:14:09;;;;;;;18.30;14.20;;;;;;;7.41;64.06;100207.68;435362;1259;138978;-69
2023/03/17 06:24:14;;;;;;;20.50;12.30;;;;;;;10.39;59.19;100195.45;434169;1254;140309;-67
2023/03/17 06:34:21;;;;;;;16.70;13.90;;;;;;;11.59;54.87;100190.95;434645;1259;139069;-69
2023/03/17 06:44:27;;;;;;;16.80;14.30;;;;;;;13.83;51.47;100178.82;435138;1256;138739;-67
2023/03/17 06:54:35;;;;;;;20.10;13.70;;;;;;;16.25;48.51;100184.83;434309;1260;139285;-67
2023/03/17 07:04:41;;;;;;;20.20;15.30;;;;;;;16.09;44.69;100186.40;434812;1255;139807;-67
2023/03/17 07:14:47;;;;;;;16.40;14.20;;;;;;;16.15;43.47;100198.51;434975;1256;138971;-67
2023/03/17 07:24:52;;;;;;;18.60;12.80;;;;;;;16.61;41.99;100218.20;434801;1257;138815;-68
2023/03/17 07:34:58;;;;;;;17.60;13.20;;;;;;;20.06;40.54;100224.51;434954;1260;139263;-66
2023/03/17 07:45:06;;;;;;;15.90;12.90;;;;;;;22.51;37.50;100223.13;435341;1255;139262;-66
2023/03/17 07:55:12;;;;;;;16.90;13.10;;;;;;;23.94;34.96;100214.02;435444;1256;138789;-68
2023/03/17 08:05:18;;;;;;;14.70;12.80;;;;;;;25.65;33.44;100191.56;435685;1256;139552;-68
2023/03/17 08:15:24;;;;;;;14.10;11.40;;;;;;;25.58;31.93;100181.85;435342;1256;139325;-67
2023/03/17 08:25:30;;;;;;;11.80;9.50;;;;;;;27.75;30.71;100175.38;435065;1256;139262;-66
2023/03/17 08:35:37;;;;;;;7.80;6.90;;;;;;;28.85;28.41;100173.61;435267;1256;139666;-69
2023/03/17 08:45:43;;;;;;;14.10;7.10;;;;;;;26.80;26.67;100167.81;436121;1256;139629;-66
2023/03/17 08:55:49;;;;;;;8.10;5.40;;;;;;;25.64;25.96;100150.14;436531;1256;138514;-67
2023/03/17 09:05:56;;;;;;;5.10;4.50;;;;;;;25.00;25.63;100139.12;435676;1256;138956;-67
2023/03/17 09:16:02;;;;;;;9.30;4.80;;;;;;;21.40;25.72;100144.30;435741;1256;138740;-69
2023/03/17 09:26:09;;;;;;;10.10;5.10;;;;;;;14.90;27.70;100129.05;435512;1255;138233;-67
2023/03/17 09:36:14;;;;;;;16.70;7.70;;;;;;;11.40;29.97;100125.02;435194;1256;139102;-67
2023/03/17 09:46:35;;;;;;;7.90;5.30;;;;;;;10.14;32.06;100126.61;435273;1260;140538;-69
2023/03/17 09:56:46;;;;;;;11.60;6.10;;;;;;;9.85;32.96;100118.52;436480;1255;139241;-68
2023/03/17 10:06:55;;;;;;;7.50;4.50;;;;;;;9.37;33.46;100127.59;435431;1256;138537;-67
2023/03/17 10:17:12;;;;;;;7.00;5.10;;;;;;;9.28;33.55;100137.33;435164;1256;138203;-68
2023/03/17 10:27:18;;;;;;;9.40;5.00;;;;;;;9.10;33.59;100135.37;434496;1256;140187;-67
2023/03/17 10:37:28;;;;;;;12.30;5.40;;;;;;;8.92;33.83;100136.26;435330;1260;138118;-67
2023/03/17 10:47:36;;;;;;;12.60;5.70;;;;;;;8.97;33.85;100122.42;435110;1256;139685;-67
2023/03/17 10:57:52;;;;;;;8.20;4.60;;;;;;;8.88;33.76;100114.11;435409;1256;138965;-68
2023/03/17 11:08:10;;;;;;;7.20;3.90;;;;;;;8.82;33.63;100097.11;435161;1256;138125;-67
2023/03/17 11:18:21;;;;;;;4.40;3.90;;;;;;;8.79;33.60;100071.93;435333;1256;139599;-68
2023/03/17 11:28:33;;;;;;;9.30;4.00;;;;;;;8.78;33.94;100067.63;434959;1260;139176;-69
2023/03/17 11:38:50;;;;;;;7.00;4.00;;;;;;;8.50;33.56;100065.48;436819;1258;138058;-69
2023/03/17 11:49:03;;;;;;;5.70;4.00;;;;;;;8.48;32.98;100051.39;435545;1259;138301;-69
2023/03/17 11:59:25;;;;;;;4.90;3.30;;;;;;;8.67;33.34;100063.25;435868;1256;139495;-68
2023/03/17 12:09:36;;;;;;;5.50;3.20;;;;;;;9.03;32.39;100047.05;435166;1256;139720;-68
2023/03/17 12:19:56;;;;;;;7.20;5.10;;;;;;;9.27;32.64;100026.98;435573;1259;139089;-69
2023/03/17 12:30:08;;;;;;;7.60;3.40;;;;;;;9.30;33.03;100007.77;436722;1260;138221;-68
2023/03/17 12:40:20;;;;;;;9.00;5.10;;;;;;;9.16;32.73;99996.23;436204;1256;138749;-69
2023/03/17 12:50:50;;;;;;;7.00;4.90;;;;;;;9.08;33.48;99976.05;436225;1256;139431;-69
2023/03/17 13:01:06;;;;;;;10.90;5.30;;;;;;;8.86;34.15;99973.46;436320;1259;138466;-68
2023/03/17 13:11:26;;;;;;;6.50;3.40;;;;;;;8.87;34.43;99972.04;436555;1258;264690;-68
2023/03/17 13:21:34;;;;;;;6.00;4.10;;;;;;;8.79;34.16;99971.23;435924;1258;138103;-68
2023/03/17 13:31:41;;;;;;;7.30;5.10;;;;;;;8.76;34.32;99962.64;435872;1259;138755;-66
2023/03/17 13:42:06;;;;;;;8.30;4.10;;;;;;;8.73;34.17;99935.05;436091;1259;138010;-68
2023/03/17 13:52:31;;;;;;;5.70;3.90;;;;;;;8.89;33.79;99923.41;435690;1260;139129;-68
2023/03/17 14:02:39;;;;;;;5.50;3.30;;;;;;;8.84;34.03;99916.66;435795;1256;138269;-68
2023/03/17 14:12:50;;;;;;;8.00;4.10;;;;;;;8.61;33.94;99908.92;435703;1256;137883;-69
2023/03/17 14:22:59;;;;;;;4.10;3.00;;;;;;;8.47;34.36;99901.09;435336;1256;138784;-68
2023/03/17 14:33:23;;;;;;;6.20;3.30;;;;;;;8.42;34.29;99884.73;435332;1258;139367;-67
2023/03/17 14:43:30;;;;;;;5.60;2.90;;;;;;;8.44;34.03;99877.50;435953;1256;139617;-70
2023/03/17 14:53:45;;;;;;;5.00;3.00;;;;;;;8.43;34.26;99859.02;435581;1257;138114;-68
2023/03/17 15:03:58;;;;;;;6.00;3.70;;;;;;;8.32;33.73;99844.57;435709;1259;139229;-69
2023/03/17 15:14:19;;;;;;;4.00;3.60;;;;;;;8.15;33.85;99839.35;436129;1256;137735;-69
2023/03/17 15:24:38;;;;;;;9.00;4.10;;;;;;;7.98;34.21;99824.29;435522;1259;139177;-68
2023/03/17 15:34:44;;;;;;;5.90;3.70;;;;;;;7.85;34.70;99817.44;438713;1256;138115;-69
2023/03/17 15:44:51;;;;;;;8.00;4.00;;;;;;;7.71;35.26;99817.75;436318;1257;138853;-69
2023/03/17 15:54:59;;;;;;;6.70;4.20;;;;;;;7.54;35.99;99811.94;438532;1259;137615;-69
2023/03/17 16:05:17;;;;;;;8.00;5.00;;;;;;;7.32;37.13;99813.67;437940;1259;139308;-68
2023/03/17 16:15:25;;;;;;;7.80;5.40;;;;;;;7.05;38.38;99830.89;438117;1256;137922;-68
2023/03/17 16:25:32;;;;;;;8.60;6.20;;;;;;;6.77;39.18;99837.04;435504;1256;138142;-69
2023/03/17 16:35:38;;;;;;;8.60;5.20;;;;;;;6.44;39.84;99845.59;437541;1258;138244;-69
2023/03/17 16:45:43;;;;;;;9.80;6.00;;;;;;;6.17;40.45;99848.60;437554;1256;138423;-69
2023/03/17 16:55:50;;;;;;;10.00;6.00;;;;;;;5.88;40.79;99848.52;437597;1259;138621;-72
2023/03/17 17:05:56;;;;;;;9.60;6.60;;;;;;;5.62;41.90;99854.78;435708;1259;138378;-69
2023/03/17 17:16:03;;;;;;;10.00;4.80;;;;;;;5.35;42.49;99862.95;437750;1258;138812;-70
2023/03/17 17:26:09;;;;;;;10.40;5.90;;;;;;;5.14;43.11;99862.33;437831;1254;139834;-69
2023/03/17 17:36:17;;;;;;;10.50;5.90;;;;;;;4.94;43.48;99865.30;436026;1259;138218;-70
2023/03/17 17:46:23;;;;;;;11.20;6.90;;;;;;;4.75;43.76;99862.33;438239;1257;138514;-69
2023/03/17 17:56:29;;;;;;;10.10;6.20;;;;;;;4.60;43.92;99857.67;438554;1259;140294;-68
2023/03/17 18:06:35;;;;;;;10.30;6.60;;;;;;;4.42;44.30;99856.87;435793;1259;138102;-70
2023/03/17 18:16:41;;;;;;;12.60;6.10;;;;;;;4.30;44.57;99844.98;437910;1256;138112;-70
2023/03/17 18:26:47;;;;;;;10.40;7.10;;;;;;;4.18;44.88;99852.13;437920;1254;139503;-69
2023/03/17 18:36:55;;;;;;;8.80;5.90;;;;;;;4.09;44.85;99851.73;437738;1258;138443;-69
2023/03/17 18:47:01;;;;;;;10.90;6.90;;;;;;;4.01;44.93;99847.11;437804;1259;138283;-69
2023/03/17 18:57:07;;;;;;;10.60;6.50;;;;;;;3.95;44.78;99839.73;437730;1259;138730;-69
2023/03/17 19:07:13;;;;;;;11.70;6.60;;;;;;;3.88;45.32;99834.58;438016;1259;142639;-69
2023/03/17 19:17:19;;;;;;;9.80;6.90;;;;;;;3.85;45.17;99825.15;438150;1258;138298;-69
2023/03/17 19:27:25;;;;;;;10.50;5.60;;;;;;;3.75;45.21;99824.40;435999;1258;138288;-68
2023/03/17 19:37:31;;;;;;;10.80;6.30;;;;;;;3.66;45.39;99818.63;435048;1259;137915;-68
2023/03/17 19:47:37;;;;;;;12.10;7.50;;;;;;;3.50;45.43;99815.51;435027;1259;139372;-69
2023/03/17 19:57:43;;;;;;;13.40;7.10;;;;;;;3.35;45.98;99819.79;437778;1259;138612;-68
2023/03/17 20:07:49;;;;;;;11.50;7.30;;;;;;;3.19;46.57;99822.66;435129;1259;138498;-69
2023/03/17 20:17:54;;;;;;;14.90;8.00;;;;;;;3.04;47.17;99822.75;435773;1255;137962;-69
2023/03/17 20:28:00;;;;;;;16.40;10.00;;;;;;;2.86;47.88;99828.29;437700;1257;139565;-68
2023/03/17 20:38:07;;;;;;;15.40;9.80;;;;;;;2.70;48.41;99835.81;438156;1256;139017;-68
2023/03/17 20:48:13;;;;;;;19.50;11.10;;;;;;;2.56;49.28;99832.40;437776;1259;138972;-70
2023/03/17 20:58:20;;;;;;;17.50;10.90;;;;;;;2.37;49.70;99837.89;437890;1260;138335;-70
2023/03/17 21:08:25;;;;;;;18.10;10.90;;;;;;;2.24;50.35;99840.30;437898;1259;137951;-69
2023/03/17 21:18:31;;;;;;;14.30;9.70;;;;;;;2.11;50.86;99837.52;438074;1255;138055;-69
2023/03/17 21:28:38;;;;;;;17.00;9.40;;;;;;;2.01;51.43;99828.61;437809;1254;140199;-65
2023/03/17 21:38:46;;;;;;;16.80;9.50;;;;;;;1.97;52.25;99816.96;435891;1260;137757;-66
2023/03/17 21:48:52;;;;;;;16.90;10.30;;;;;;;1.92;52.71;99809.68;435637;1259;138274;-65
2023/03/17 21:58:58;;;;;;;16.40;8.80;;;;;;;1.86;53.27;99799.64;435121;1258;138064;-66
2023/03/17 22:09:06;;;;;;;17.70;9.10;;;;;;;1.84;53.66;99794.50;435380;1259;137809;-66
2023/03/17 22:19:12;;;;;;;14.00;8.40;;;;;;;1.85;53.94;99789.29;435918;1259;138014;-65
2023/03/17 22:29:19;;;;;;;13.90;7.80;;;;;;;1.93;54.28;99791.17;435335;1260;138398;-66
2023/03/17 22:39:27;;;;;;;13.80;8.90;;;;;;;1.99;54.55;99782.39;435574;1260;137879;-64
2023/03/17 22:49:34;;;;;;;16.70;9.00;;;;;;;1.99;54.39;99784.46;435800;1260;137933;-66
2023/03/17 22:59:41;;;;;;;12.70;7.90;;;;;;;1.98;54.82;99780.67;435778;1257;139256;-66
2023/03/17 23:09:47;;;;;;;14.00;8.10;;;;;;;1.95;54.81;99774.20;435701;1257;139147;-66
2023/03/17 23:19:54;;;;;;;10.30;7.30;;;;;;;1.89;54.99;99765.88;435200;1257;138095;-66
2023/03/17 23:29:59;;;;;;;10.80;7.60;;;;;;;1.76;55.32;99756.39;435328;1256;138659;-67
2023/03/17 23:40:08;;;;;;;11.80;6.90;;;;;;;1.60;55.79;99753.66;434704;1257;140069;-66
2023/03/17 23:50:15;;;;;;;14.10;7.80;;;;;;;1.50;56.39;99744.59;435221;1257;138425;-69
